Flight Track Log - Related Links

Times and Time Zones

All times are in EDT time to prevent confusion due to time zone crossing. See the N682RW flight status page for this flight to view local times or setup timezone preferences in your user account.

Time Position Orientation Groundspeed Altitude Reporting Facility
EDT Latitude Longitude Course Direction KTS MPH feet Rate Location/Type
Mon 10:01:12 AM 42.8886 -85.5656 20° North 193 222 2,800  Level Chicago Center
Mon 10:02:14 AM 42.9442 -85.5386 20° North 242 278 5,300 2,758 Climbing Chicago Center
Mon 10:03:16 AM 42.9375 -85.4294 95° East 299 344 8,500 2,274 Climbing Chicago Center
Mon 10:04:18 AM 42.9417 -85.3033 87° East 338 389 10,000 1,984 Climbing Chicago Center
Mon 10:05:20 AM 42.9469 -85.1383 87° East 363 418 12,600 2,613 Climbing Chicago Center
Mon 10:06:22 AM 42.9494 -84.9928 89° East 379 436 15,400 2,710 Climbing Chicago Center
Mon 10:07:24 AM 42.9522 -84.8406 89° East 399 459 18,200 2,371 Climbing Chicago Center
Mon 10:08:26 AM 42.9561 -84.6781 88° East 422 486 20,300 2,016 Climbing Chicago Center
Mon 10:09:29 AM 42.9592 -84.5092 89° East 439 505 22,400 2,112 Climbing Chicago Center
Mon 10:10:31 AM 42.9625 -84.2956 89° East 464 534 24,700 1,984 Climbing Chicago Center
Mon 10:11:33 AM 42.9647 -84.1136 89° East 476 548 26,500 1,645 Climbing Chicago Center
Mon 10:12:35 AM 42.9664 -83.9267 89° East 489 563 28,100 1,645 Climbing Chicago Center
Mon 10:13:37 AM 42.9692 -83.7347 89° East 503 579 29,900 2,026 Climbing Chicago Center
Mon 10:13:52 AM 42.9667 -83.6500 92° East 510 587 30,700 880 Climbing Toronto Center
Mon 10:14:52 AM 42.9667 -83.4667 90° East 510 587 31,000 158 Climbing Toronto Center
Mon 10:15:46 AM 42.9803 -83.3106 83° East 506 582 31,000 53 Level Cleveland Center
Mon 10:16:46 AM 42.9889 -83.1178 86° East 511 588 31,100 400 Climbing Cleveland Center
Mon 10:17:46 AM 42.9950 -82.9164 88° East 516 594 31,800 700 Climbing Cleveland Center
Mon 10:18:46 AM 43.0011 -82.7181 88° East 516 594 32,500 600 Climbing Cleveland Center
Mon 10:19:46 AM 43.0067 -82.5222 88° East 516 594 33,000 250 Climbing Cleveland Center
Mon 10:20:46 AM 43.0097 -82.3208 89° East 516 594 33,000  Level Cleveland Center
Mon 10:21:52 AM 43.0000 -82.0667 93° East 530 610 33,000 -190 Level Toronto Center
Mon 10:22:52 AM 43.0167 -81.8667 83° East 530 610 32,600 -650 Descending Toronto Center
Mon 10:23:52 AM 43.0167 -81.6667 90° East 530 610 31,700 -800 Descending Toronto Center
Mon 10:24:52 AM 43.0167 -81.4833 90° East 520 598 31,000 -350 Descending Toronto Center
Mon 10:25:52 AM 43.0167 -81.2500 90° East 520 598 31,000  Level Toronto Center
Mon 10:26:52 AM 43.0167 -81.0667 90° East 520 598 31,000  Level Toronto Center
Mon 10:27:52 AM 43.0167 -80.8833 90° East 530 610 31,000  Level Toronto Center
Mon 10:28:52 AM 43.0167 -80.6833 90° East 530 610 31,000 -100 Level Toronto Center
Mon 10:29:52 AM 43.0000 -80.4833 96° East 530 610 30,800 -850 Descending Toronto Center
Mon 10:30:52 AM 43.0000 -80.2667 90° East 530 610 29,300 -900 Descending Toronto Center
Mon 10:31:52 AM 42.9833 -80.0667 96° East 530 610 29,000 -150 Descending Toronto Center
Mon 10:32:52 AM 42.9833 -79.8833 90° East 530 610 29,000  Level Toronto Center
Mon 10:33:52 AM 42.9667 -79.6500 95° East 530 610 29,000  Level Toronto Center
Mon 10:34:52 AM 42.9667 -79.4667 90° East 530 610 29,000  Level Toronto Center
Mon 10:35:52 AM 42.9500 -79.2667 96° East 530 610 29,000  Level Toronto Center
Mon 10:36:52 AM 42.9500 -79.0667 90° East 530 610 29,000  Level Toronto Center
Mon 10:37:52 AM 42.9667 -78.8667 83° East 530 610 29,000  Level Toronto Center
Mon 10:38:11 AM 42.9806 -78.8408 54° Northeast 534 615 29,000 -456 Level Cleveland Center
Mon 10:39:11 AM 42.9961 -78.6417 84° East 534 615 28,400 -700 Descending Cleveland Center
Mon 10:40:11 AM 43.0114 -78.4367 84° East 539 620 27,600 -1,050 Descending Cleveland Center
Mon 10:41:11 AM 43.0264 -78.2431 84° East 533 613 26,300 -1,500 Descending Cleveland Center
Mon 10:42:11 AM 43.0411 -78.0550 84° East 511 588 24,600 -1,650 Descending Cleveland Center
Mon 10:43:11 AM 43.0519 -77.8814 85° East 482 555 23,000 -950 Descending Cleveland Center
Mon 10:44:11 AM 43.0644 -77.7158 84° East 460 529 22,700 -850 Descending Cleveland Center
Mon 10:45:11 AM 43.0769 -77.5447 84° East 447 514 21,300 -1,500 Descending Cleveland Center
Mon 10:46:11 AM 43.0869 -77.3792 85° East 442 509 19,700 -1,800 Descending Cleveland Center
Mon 10:47:11 AM 43.0969 -77.2194 85° East 436 502 17,700 -1,900 Descending Cleveland Center
Mon 10:48:11 AM 43.1072 -77.0683 85° East 420 483 15,900 -1,950 Descending Cleveland Center
Mon 10:49:11 AM 43.1172 -76.9225 85° East 395 455 13,800 -1,752 Descending Cleveland Center
Mon 10:50:52 AM 43.1167 -76.6333 90° East 360 414 11,200 -1,491 Descending Toronto Center
Mon 10:51:52 AM 43.1167 -76.5333 90° East 330 380 9,800 -1,423 Descending Toronto Center
Mon 10:52:29 AM 43.1461 -76.4758 55° Northeast 316 364 8,900 -1,531 Descending Boston Center
Mon 10:53:30 AM 43.1500 -76.3594 87° East 313 360 7,300 -1,525 Descending Boston Center
Mon 10:54:31 AM 43.1581 -76.2461 84° East 300 345 5,800 -1,488 Descending Boston Center
Mon 10:55:31 AM 43.1656 -76.1439 84° East 245 282 4,300 -1,289 Descending Boston Center
Mon 10:56:32 AM 43.1808 -76.0594 76° East 210 242 3,200 -1,033 Descending Boston Center
Mon 10:57:33 AM 43.1553 -76.0094 125° Southeast 168 193 2,200 -939 Descending Boston Center
Mon 10:58:27 AM 43.1192 -76.0272 200° South 145 167 1,400 -744 Descending Boston Center
Mon 10:59:34 AM 43.1094 -76.0781 255° West 122 140 700 -627 Descending Boston Center

Login

Don't have an account? Register now (free) for customized features, flight alerts, and more!